Time;durP1;ratioP1;P1;durP2;ratioP2;P2;SDS_P1;SDS_P2;PMS_P1;PMS_P2;Temp;Humidity;BMP_temperature;BMP_pressure;BME280_temperature;BME280_humidity;BME280_pressure;Samples;Min_cycle;Max_cycle;Signal;HPM_P1;HPM_P2
2020/12/29 00:00:58;;;;;;;3.92;0.90;;;;;;;9.60;44.89;92741.88;5072351;28;20031;-72
2020/12/29 00:03:24;;;;;;;3.35;0.70;;;;;;;9.79;44.86;92760.72;5072308;28;20476;-72
2020/12/29 00:05:50;;;;;;;1.27;0.47;;;;;;;9.93;44.34;92728.44;5076588;28;20085;-72
2020/12/29 00:08:16;;;;;;;1.35;0.57;;;;;;;10.00;44.51;92765.13;5091399;28;20563;-72
2020/12/29 00:10:42;;;;;;;1.77;0.52;;;;;;;10.13;44.42;92785.28;5090744;28;20488;-72
2020/12/29 00:13:08;;;;;;;3.30;1.13;;;;;;;10.21;44.52;92787.03;5091038;28;20032;-72
2020/12/29 00:15:38;;;;;;;1.33;0.70;;;;;;;10.25;44.41;92808.47;5091054;28;20028;-72
2020/12/29 00:18:03;;;;;;;1.50;0.50;;;;;;;10.32;43.94;92797.25;5091211;28;20031;-72
2020/12/29 00:20:29;;;;;;;2.58;0.55;;;;;;;10.33;44.01;92801.47;5092312;28;20560;-72
2020/12/29 00:22:54;;;;;;;0.22;0.22;;;;;;;10.40;43.96;92799.81;5090660;28;20024;-72
2020/12/29 00:25:20;;;;;;;1.95;0.82;;;;;;;10.41;43.84;92827.22;5091277;28;20024;-72
2020/12/29 00:27:46;;;;;;;0.95;0.50;;;;;;;10.41;44.03;92819.22;5090896;28;20036;-72
2020/12/29 00:30:12;;;;;;;1.13;0.50;;;;;;;10.44;43.90;92815.88;5092125;28;20123;-72
2020/12/29 00:32:37;;;;;;;1.30;0.60;;;;;;;10.44;43.74;92831.84;5091954;28;20103;-72
2020/12/29 00:35:03;;;;;;;1.30;0.60;;;;;;;10.46;43.86;92840.28;5090373;28;20036;-72
2020/12/29 00:37:29;;;;;;;2.47;0.68;;;;;;;10.39;43.88;92832.88;5092161;28;20023;-72
2020/12/29 00:39:54;;;;;;;1.73;0.60;;;;;;;10.29;44.72;92793.34;5091600;28;20024;-72
2020/12/29 00:42:19;;;;;;;3.25;0.52;;;;;;;10.34;44.71;92784.38;5092057;28;20024;-72
2020/12/29 00:44:45;;;;;;;0.75;0.50;;;;;;;10.32;44.85;92791.94;5090570;28;20081;-71
2020/12/29 00:47:10;;;;;;;3.45;0.43;;;;;;;10.34;44.58;92747.09;5091485;28;20032;-72
2020/12/29 00:49:38;;;;;;;0.50;0.30;;;;;;;10.29;45.25;92742.75;5091941;28;20028;-71
2020/12/29 00:52:04;;;;;;;1.00;0.32;;;;;;;10.30;45.32;92751.53;5090066;28;20121;-71
2020/12/29 00:54:29;;;;;;;0.60;0.40;;;;;;;10.28;45.33;92690.63;5090316;28;20055;-72
2020/12/29 00:56:54;;;;;;;0.70;0.40;;;;;;;10.19;45.74;92676.66;5091697;28;20027;-72
2020/12/29 00:59:20;;;;;;;1.88;0.40;;;;;;;10.17;45.61;92649.59;5091366;28;20024;-72
2020/12/29 01:01:53;;;;;;;3.38;0.73;;;;;;;10.10;45.79;92609.50;5091667;28;20030;-72
2020/12/29 01:04:19;;;;;;;0.98;0.38;;;;;;;10.08;46.14;92627.69;5090266;28;20097;-72
2020/12/29 01:06:44;;;;;;;0.50;0.30;;;;;;;10.06;46.02;92592.66;5089963;28;20032;-72
2020/12/29 01:09:09;;;;;;;4.78;0.63;;;;;;;10.07;45.31;92564.91;5090173;28;20024;-72
2020/12/29 01:11:35;;;;;;;8.57;0.40;;;;;;;10.11;45.94;92550.56;5091254;28;20023;-72
2020/12/29 01:14:00;;;;;;;4.75;0.60;;;;;;;10.14;45.20;92589.81;5076873;28;20123;-71
2020/12/29 01:16:26;;;;;;;4.07;0.40;;;;;;;10.15;45.56;92602.00;5087154;28;20038;-72
2020/12/29 01:18:51;;;;;;;4.50;0.80;;;;;;;10.18;45.01;92564.06;5092240;28;20498;-71
2020/12/29 01:21:17;;;;;;;4.70;0.43;;;;;;;10.20;45.06;92545.09;5091931;28;20036;-72
2020/12/29 01:23:42;;;;;;;2.10;0.75;;;;;;;10.15;45.46;92591.34;5090714;28;20484;-71
2020/12/29 01:26:08;;;;;;;5.88;0.52;;;;;;;10.16;45.17;92558.31;5090709;28;20024;-71
2020/12/29 01:28:36;;;;;;;1.77;0.52;;;;;;;10.19;45.00;92517.66;5091807;28;20028;-73
2020/12/29 01:31:02;;;;;;;5.53;0.43;;;;;;;10.23;44.92;92536.41;5091915;28;20463;-73
2020/12/29 01:33:27;;;;;;;0.73;0.40;;;;;;;10.27;44.30;92528.50;5079978;28;20112;-73
2020/12/29 01:35:53;;;;;;;1.17;0.40;;;;;;;10.25;44.41;92584.75;5070614;28;20112;-72
2020/12/29 01:38:18;;;;;;;0.25;0.22;;;;;;;10.28;44.56;92580.63;5071506;28;20484;-72
2020/12/29 01:40:44;;;;;;;3.35;0.55;;;;;;;10.30;44.29;92571.25;5068956;28;20027;-73
2020/12/29 01:43:10;;;;;;;5.03;0.63;;;;;;;10.33;43.92;92585.75;5069333;28;20610;-72
2020/12/29 01:45:36;;;;;;;3.70;0.70;;;;;;;10.31;44.52;92620.72;5071940;28;20550;-72
2020/12/29 01:48:01;;;;;;;1.23;0.35;;;;;;;10.34;43.80;92624.56;5090782;28;20024;-72
2020/12/29 01:50:26;;;;;;;0.52;0.30;;;;;;;10.39;43.51;92629.66;5091047;28;20093;-73
2020/12/29 01:52:57;;;;;;;0.57;0.45;;;;;;;10.43;43.63;92655.28;5088992;28;20110;-72
2020/12/29 01:55:24;;;;;;;1.90;0.82;;;;;;;10.42;43.06;92647.63;5089338;28;20032;-72
2020/12/29 01:57:51;;;;;;;2.67;0.40;;;;;;;10.46;43.55;92667.13;5090314;28;20078;-73
2020/12/29 02:00:16;;;;;;;3.58;0.60;;;;;;;10.44;43.02;92651.50;5090604;28;20080;-72
2020/12/29 02:02:42;;;;;;;1.17;0.30;;;;;;;10.46;43.30;92635.16;5090252;28;20016;-73
2020/12/29 02:05:08;;;;;;;5.43;0.50;;;;;;;10.43;42.89;92623.31;5090029;28;20028;-73
2020/12/29 02:07:34;;;;;;;0.88;0.60;;;;;;;10.36;43.59;92607.16;5090169;28;20112;-72
2020/12/29 02:10:00;;;;;;;1.08;0.50;;;;;;;10.38;43.61;92612.91;5088701;28;20051;-73
2020/12/29 02:12:31;;;;;;;0.98;0.43;;;;;;;10.38;43.44;92626.22;5088759;28;20036;-73
2020/12/29 02:14:59;;;;;;;3.58;0.30;;;;;;;10.34;44.16;92611.25;5090351;28;20038;-72
2020/12/29 02:17:25;;;;;;;1.30;0.50;;;;;;;10.34;43.98;92636.03;5090255;28;20051;-72
2020/12/29 02:19:52;;;;;;;0.55;0.30;;;;;;;10.32;43.81;92618.81;5088091;28;20031;-73
2020/12/29 02:22:22;;;;;;;4.53;0.30;;;;;;;10.33;43.28;92628.38;5088450;28;20028;-73
2020/12/29 02:24:59;;;;;;;0.25;0.25;;;;;;;10.38;43.34;92617.44;5089814;28;20092;-73
2020/12/29 02:27:28;;;;;;;2.53;0.30;;;;;;;10.35;43.45;92594.19;5073476;28;20055;-73
2020/12/29 02:29:54;;;;;;;0.90;0.43;;;;;;;10.26;43.93;92602.31;5069668;28;20032;-72
2020/12/29 02:32:20;;;;;;;1.35;0.30;;;;;;;10.31;43.89;92617.28;5069242;28;20039;-72
2020/12/29 02:34:46;;;;;;;1.58;0.47;;;;;;;10.22;44.31;92580.91;5068247;28;20476;-72
2020/12/29 02:37:12;;;;;;;1.77;0.50;;;;;;;10.14;44.92;92621.78;5069642;28;20040;-72
2020/12/29 02:39:40;;;;;;;0.40;0.20;;;;;;;10.13;45.07;92574.94;5083509;28;20040;-72
2020/12/29 02:42:07;;;;;;;1.48;0.40;;;;;;;10.10;44.53;92575.66;5080868;28;20029;-72
2020/12/29 02:44:32;;;;;;;8.80;0.85;;;;;;;10.11;44.22;92597.72;5069078;28;20020;-72
2020/12/29 02:46:58;;;;;;;4.57;0.60;;;;;;;10.16;44.29;92624.09;5069511;28;20517;-72
2020/12/29 02:49:23;;;;;;;0.50;0.30;;;;;;;10.12;44.33;92639.19;5069590;28;20033;-72
2020/12/29 02:51:49;;;;;;;5.65;0.47;;;;;;;10.11;44.42;92641.06;5069186;28;20045;-72
2020/12/29 02:54:15;;;;;;;3.28;0.60;;;;;;;10.08;43.99;92611.72;5081531;28;20032;-72
2020/12/29 02:56:42;;;;;;;0.73;0.30;;;;;;;10.16;43.83;92642.75;5069953;28;20456;-72
2020/12/29 02:59:08;;;;;;;2.55;0.55;;;;;;;10.18;43.83;92683.13;5088299;28;20102;-72
2020/12/29 03:01:34;;;;;;;3.75;0.38;;;;;;;10.17;43.85;92666.34;5089442;28;20463;-72
2020/12/29 03:04:00;;;;;;;2.13;0.43;;;;;;;10.23;43.81;92666.88;5089458;28;20108;-72
2020/12/29 03:06:25;;;;;;;2.70;0.32;;;;;;;10.21;43.65;92645.91;5089515;28;20028;-72
2020/12/29 03:08:51;;;;;;;2.17;0.45;;;;;;;10.25;43.71;92675.31;5089305;28;20097;-72
2020/12/29 03:11:44;;;;;;;2.97;0.63;;;;;;;10.22;43.45;92666.13;5088214;28;20527;-72
2020/12/29 03:14:10;;;;;;;1.67;0.40;;;;;;;10.24;43.27;92682.53;5084628;28;20380;-72
2020/12/29 03:16:36;;;;;;;0.45;0.35;;;;;;;10.24;43.07;92682.53;5088194;28;20032;-72
2020/12/29 03:19:02;;;;;;;1.50;0.50;;;;;;;10.31;42.79;92726.47;5089128;28;20030;-72
2020/12/29 03:21:28;;;;;;;7.63;0.70;;;;;;;10.35;42.59;92727.34;5081206;28;20077;-72
2020/12/29 03:23:54;;;;;;;0.80;0.40;;;;;;;10.40;42.10;92751.84;5068761;28;20016;-72
2020/12/29 03:26:19;;;;;;;2.90;0.65;;;;;;;10.45;42.25;92753.50;5069202;28;20454;-72
2020/12/29 03:28:45;;;;;;;4.97;0.60;;;;;;;10.50;42.11;92761.25;5077605;28;20552;-72
2020/12/29 03:31:12;;;;;;;1.05;0.50;;;;;;;10.51;41.94;92768.13;5092903;28;20023;-72
2020/12/29 03:33:37;;;;;;;1.83;0.43;;;;;;;10.50;42.06;92755.16;5080755;28;20470;-72
2020/12/29 03:36:03;;;;;;;1.67;0.35;;;;;;;10.48;41.94;92763.47;5072797;28;20024;-73
2020/12/29 03:38:29;;;;;;;0.20;0.20;;;;;;;10.51;42.17;92765.47;5071710;28;20024;-72
2020/12/29 03:40:55;;;;;;;1.30;0.40;;;;;;;10.52;41.99;92779.56;5071565;28;20032;-72
2020/12/29 03:43:21;;;;;;;0.20;0.20;;;;;;;10.55;41.24;92704.28;5072704;28;20032;-73
2020/12/29 03:45:48;;;;;;;2.78;0.50;;;;;;;10.57;41.74;92734.81;5072737;28;20470;-72
2020/12/29 03:48:19;;;;;;;1.02;0.40;;;;;;;10.60;41.09;92760.78;5089720;28;20023;-72
2020/12/29 03:50:45;;;;;;;0.47;0.28;;;;;;;10.65;40.55;92751.75;5071401;28;20051;-72
2020/12/29 03:53:11;;;;;;;0.73;0.30;;;;;;;10.70;40.79;92770.16;5072615;28;20443;-72
2020/12/29 03:55:37;;;;;;;0.30;0.30;;;;;;;10.71;40.68;92792.28;5072434;28;20043;-72
2020/12/29 03:58:03;;;;;;;5.07;0.65;;;;;;;10.73;40.17;92792.72;5091587;28;20028;-72
2020/12/29 04:00:29;;;;;;;1.40;0.40;;;;;;;10.75;39.78;92771.81;5083054;28;20501;-72
2020/12/29 04:02:54;;;;;;;2.75;0.47;;;;;;;10.79;39.52;92768.13;5086896;28;20039;-72
2020/12/29 04:05:20;;;;;;;3.58;0.52;;;;;;;10.83;39.45;92766.34;5092572;28;20032;-72
2020/12/29 04:07:48;;;;;;;1.90;0.47;;;;;;;10.83;39.72;92778.91;5091118;28;20470;-72
2020/12/29 04:10:13;;;;;;;1.50;0.43;;;;;;;10.82;39.82;92788.75;5091031;28;20456;-72
2020/12/29 04:12:39;;;;;;;1.25;0.30;;;;;;;10.90;39.93;92775.63;5092172;28;20036;-72
2020/12/29 04:15:05;;;;;;;13.50;2.17;;;;;;;10.96;39.28;92808.94;5092307;28;20077;-72
2020/12/29 04:17:35;;;;;;;1.60;0.40;;;;;;;10.98;39.89;92817.38;5091261;28;20024;-72
2020/12/29 04:20:01;;;;;;;1.50;0.30;;;;;;;10.98;39.66;92820.03;5090979;28;20480;-72
2020/12/29 04:22:31;;;;;;;1.70;0.50;;;;;;;10.98;39.47;92858.13;5090819;28;20032;-72
2020/12/29 04:24:58;;;;;;;5.32;0.43;;;;;;;11.02;39.61;92839.56;5079667;28;20444;-72
2020/12/29 04:27:24;;;;;;;1.35;0.43;;;;;;;11.02;39.65;92828.91;5070661;28;20035;-72
2020/12/29 04:29:50;;;;;;;4.53;0.65;;;;;;;11.02;39.76;92859.00;5071874;28;20499;-72
2020/12/29 04:32:15;;;;;;;0.82;0.50;;;;;;;11.00;39.63;92849.78;5071947;28;20032;-72
2020/12/29 04:34:41;;;;;;;2.38;0.63;;;;;;;10.98;39.45;92850.13;5070776;28;20030;-72
2020/12/29 04:37:07;;;;;;;1.38;0.32;;;;;;;11.02;39.70;92864.31;5071675;28;20028;-72
2020/12/29 04:39:32;;;;;;;6.35;0.60;;;;;;;11.01;39.52;92846.78;5071594;28;20020;-72
2020/12/29 04:42:06;;;;;;;2.67;0.55;;;;;;;11.04;39.35;92830.09;5071124;28;20028;-72
2020/12/29 04:44:31;;;;;;;0.95;0.28;;;;;;;11.02;39.99;92826.22;5091245;28;20016;-72
2020/12/29 04:46:58;;;;;;;3.72;0.68;;;;;;;11.02;39.43;92836.91;5090603;28;20092;-72
2020/12/29 04:49:23;;;;;;;0.88;0.45;;;;;;;11.04;39.71;92824.78;5090460;28;20495;-72
2020/12/29 04:51:50;;;;;;;2.03;0.68;;;;;;;11.00;40.10;92815.91;5090145;28;20076;-72
2020/12/29 04:54:18;;;;;;;4.13;0.57;;;;;;;10.99;40.12;92824.22;5091241;28;20437;-72
2020/12/29 04:56:53;;;;;;;1.48;0.43;;;;;;;10.98;39.79;92828.03;5091425;28;20458;-72
2020/12/29 04:59:18;;;;;;;2.83;0.60;;;;;;;10.98;40.37;92815.47;5089969;28;20016;-72
2020/12/29 05:01:44;;;;;;;2.72;0.50;;;;;;;11.00;40.22;92826.56;5090074;28;20364;-72
2020/12/29 05:04:09;;;;;;;1.38;0.40;;;;;;;10.95;40.38;92813.50;5078580;28;20112;-72
2020/12/29 05:06:35;;;;;;;2.03;0.50;;;;;;;11.02;40.46;92851.00;5070870;28;20024;-72
2020/12/29 05:09:01;;;;;;;2.55;0.50;;;;;;;10.99;40.87;92809.03;5069754;28;20069;-72
2020/12/29 05:11:26;;;;;;;2.17;0.45;;;;;;;10.95;40.71;92845.50;5070914;28;20059;-72
2020/12/29 05:13:52;;;;;;;1.95;0.60;;;;;;;10.94;40.71;92827.16;5070971;28;20035;-72
2020/12/29 05:16:17;;;;;;;1.65;0.40;;;;;;;10.92;40.95;92835.50;5070876;28;20061;-72
2020/12/29 05:18:44;;;;;;;2.88;0.40;;;;;;;10.84;41.09;92852.41;5070830;28;20021;-73
2020/12/29 05:21:10;;;;;;;2.17;0.40;;;;;;;10.87;41.71;92835.75;5070805;28;20412;-72
2020/12/29 05:23:36;;;;;;;1.10;0.50;;;;;;;10.82;41.32;92828.75;5089485;28;20021;-72
2020/12/29 05:26:03;;;;;;;1.55;0.40;;;;;;;10.81;41.59;92818.44;5090916;28;20045;-72
2020/12/29 05:28:28;;;;;;;3.30;0.88;;;;;;;10.80;41.53;92830.19;5079283;28;20029;-72
2020/12/29 05:31:00;;;;;;;0.88;0.35;;;;;;;10.78;41.47;92819.09;5069861;28;20032;-72
2020/12/29 05:33:29;;;;;;;1.15;0.40;;;;;;;10.83;41.47;92819.66;5086946;28;20396;-72
2020/12/29 05:35:56;;;;;;;0.20;0.20;;;;;;;10.76;41.96;92790.13;5091540;28;20040;-72
2020/12/29 05:38:22;;;;;;;2.42;0.30;;;;;;;10.81;41.67;92797.13;5090363;28;20027;-72
2020/12/29 05:40:49;;;;;;;0.57;0.28;;;;;;;10.77;41.75;92782.91;5090347;28;20070;-72
2020/12/29 05:43:32;;;;;;;1.00;0.43;;;;;;;10.77;41.75;92756.28;5091626;28;20012;-72
2020/12/29 05:46:06;;;;;;;10.38;1.08;;;;;;;10.76;41.91;92795.44;5090647;28;20028;-72
2020/12/29 05:48:32;;;;;;;2.05;0.52;;;;;;;10.76;42.12;92786.69;5074368;28;20028;-72
2020/12/29 05:51:01;;;;;;;1.95;0.50;;;;;;;10.77;41.87;92782.91;5077265;28;20054;-72
2020/12/29 05:53:27;;;;;;;1.45;0.57;;;;;;;10.77;42.35;92786.34;5077184;28;20044;-72
2020/12/29 05:55:53;;;;;;;3.40;0.50;;;;;;;10.73;42.56;92814.03;5070282;28;20514;-73
2020/12/29 05:58:19;;;;;;;3.33;0.40;;;;;;;10.78;42.29;92790.56;5070372;28;20484;-72
2020/12/29 06:00:44;;;;;;;2.75;0.68;;;;;;;10.76;42.67;92790.13;5070533;28;20104;-72
2020/12/29 06:03:10;;;;;;;1.73;0.35;;;;;;;10.77;42.03;92749.03;5087821;28;20053;-72
2020/12/29 06:05:38;;;;;;;10.35;0.90;;;;;;;10.77;42.51;92758.94;5090211;28;20283;-72
2020/12/29 06:08:06;;;;;;;8.43;0.82;;;;;;;10.80;42.08;92752.91;5090073;28;20165;-72
2020/12/29 06:10:34;;;;;;;1.77;0.45;;;;;;;10.82;42.48;92745.34;5084741;28;20153;-72
2020/12/29 06:13:03;;;;;;;1.23;0.20;;;;;;;10.84;42.23;92743.13;5089111;28;20030;-72
2020/12/29 06:15:30;;;;;;;0.68;0.30;;;;;;;10.86;42.65;92809.41;5088701;28;20403;-72
2020/12/29 06:17:59;;;;;;;2.22;0.70;;;;;;;10.89;42.20;92774.06;5090216;28;20032;-72
2020/12/29 06:20:32;;;;;;;1.55;0.38;;;;;;;10.89;42.29;92792.72;5089838;28;20110;-72
2020/12/29 06:23:00;;;;;;;1.10;0.35;;;;;;;10.91;42.33;92791.28;5090574;28;20031;-72
2020/12/29 06:25:30;;;;;;;5.80;0.30;;;;;;;10.96;42.24;92790.28;5079252;28;20396;-72
2020/12/29 06:28:00;;;;;;;1.48;0.45;;;;;;;10.95;41.88;92773.50;5069726;28;20024;-72
2020/12/29 06:30:25;;;;;;;1.70;0.60;;;;;;;11.00;42.11;92812.47;5068577;28;20029;-72
2020/12/29 06:32:54;;;;;;;0.88;0.45;;;;;;;11.01;41.71;92758.81;5069411;28;20032;-72
2020/12/29 06:35:19;;;;;;;6.00;0.98;;;;;;;11.01;41.71;92763.34;5069828;28;20038;-72
2020/12/29 06:38:08;;;;;;;0.75;0.40;;;;;;;11.04;41.31;92755.44;5088394;28;20036;-72
2020/12/29 06:40:34;;;;;;;1.08;0.40;;;;;;;11.09;41.29;92775.75;5084168;28;20105;-72
2020/12/29 06:43:00;;;;;;;1.25;0.40;;;;;;;11.14;41.74;92814.75;5089945;28;20024;-72
2020/12/29 06:45:32;;;;;;;1.02;0.35;;;;;;;11.15;41.66;92829.59;5088288;28;20120;-72
2020/12/29 06:47:58;;;;;;;1.10;0.45;;;;;;;11.12;41.76;92823.06;5087253;28;20031;-72
2020/12/29 06:50:26;;;;;;;2.72;0.55;;;;;;;11.14;41.84;92830.75;5068201;28;20199;-72
2020/12/29 06:52:59;;;;;;;2.25;0.45;;;;;;;11.19;41.80;92855.28;5069320;28;20484;-72
2020/12/29 06:55:34;;;;;;;3.00;0.55;;;;;;;11.15;41.85;92810.94;5089095;28;20028;-72
2020/12/29 06:58:00;;;;;;;1.02;0.40;;;;;;;11.19;41.70;92849.94;5089317;28;20105;-72
2020/12/29 07:00:25;;;;;;;2.55;1.27;;;;;;;11.22;41.61;92837.81;5079068;28;20066;-72
2020/12/29 07:02:53;;;;;;;7.18;0.60;;;;;;;11.18;41.99;92863.59;5068144;28;20053;-72
2020/12/29 07:05:35;;;;;;;1.02;0.47;;;;;;;11.24;41.87;92800.91;5087950;28;20104;-72
2020/12/29 07:08:07;;;;;;;1.45;0.82;;;;;;;11.22;41.89;92869.81;5089513;28;20024;-72
2020/12/29 07:10:45;;;;;;;2.97;0.80;;;;;;;11.28;42.23;92870.34;5089240;28;20114;-72
2020/12/29 07:13:18;;;;;;;1.02;0.30;;;;;;;11.19;42.42;92889.16;5073957;28;20035;-71
2020/12/29 07:15:50;;;;;;;2.38;0.30;;;;;;;11.23;42.10;92925.50;5086018;28;20595;-72
2020/12/29 07:18:20;;;;;;;2.00;0.50;;;;;;;11.22;42.29;92891.16;5088018;28;20036;-71
2020/12/29 07:20:48;;;;;;;2.90;1.25;;;;;;;11.26;41.93;92885.91;5089351;28;20032;-72
2020/12/29 07:23:17;;;;;;;1.67;0.40;;;;;;;11.24;41.99;92900.34;5085813;28;20024;-71
2020/12/29 07:25:47;;;;;;;1.67;0.55;;;;;;;11.31;41.81;92872.31;5089097;28;20020;-72
2020/12/29 07:28:13;;;;;;;4.30;0.60;;;;;;;11.33;41.89;92891.44;5088635;28;20448;-72
2020/12/29 07:30:38;;;;;;;1.38;0.40;;;;;;;11.39;41.65;92903.41;5088530;28;20035;-72
2020/12/29 07:33:06;;;;;;;1.83;0.60;;;;;;;11.44;41.81;92919.19;5089764;28;20399;-72
2020/12/29 07:35:34;;;;;;;2.33;0.40;;;;;;;11.48;42.17;92919.25;5088557;28;20042;-72
2020/12/29 07:38:20;;;;;;;0.63;0.30;;;;;;;11.49;42.07;92905.56;5088255;28;20169;-72
2020/12/29 07:40:46;;;;;;;6.05;0.75;;;;;;;11.52;41.74;92909.44;5077502;28;20040;-72
2020/12/29 07:43:12;;;;;;;3.42;0.70;;;;;;;11.58;41.92;92929.44;5088170;28;20027;-72
2020/12/29 07:45:38;;;;;;;1.55;0.60;;;;;;;11.58;41.74;92980.13;5080649;28;20407;-72
2020/12/29 07:48:05;;;;;;;1.95;0.57;;;;;;;11.56;42.21;92964.50;5087774;28;20027;-72
2020/12/29 07:50:31;;;;;;;0.95;0.38;;;;;;;11.55;41.71;92884.75;5088421;28;20038;-72
2020/12/29 07:53:04;;;;;;;2.03;0.30;;;;;;;11.56;41.81;92927.13;5089411;28;20044;-71
2020/12/29 07:55:30;;;;;;;1.10;0.30;;;;;;;11.57;42.33;92954.59;5089494;28;20039;-71
2020/12/29 07:57:56;;;;;;;1.08;0.40;;;;;;;11.59;42.37;92968.38;5088039;28;20023;-72
2020/12/29 08:00:22;;;;;;;2.47;0.68;;;;;;;11.60;42.01;92991.25;5088320;28;20035;-72
2020/12/29 08:02:52;;;;;;;1.27;0.70;;;;;;;11.64;42.04;92990.25;5088317;28;20024;-72
2020/12/29 08:05:23;;;;;;;2.50;0.80;;;;;;;11.65;41.95;92951.00;5075493;28;20060;-72
2020/12/29 08:08:10;;;;;;;1.88;0.60;;;;;;;11.65;41.97;92983.00;5069422;28;20031;-72
2020/12/29 08:10:40;;;;;;;1.45;0.70;;;;;;;11.60;42.57;92983.25;5085434;28;20016;-72
2020/12/29 08:13:10;;;;;;;3.38;0.40;;;;;;;11.63;42.25;92982.56;5089172;28;20032;-72
2020/12/29 08:15:43;;;;;;;4.22;1.08;;;;;;;11.65;42.38;93007.03;5088139;28;20149;-72
2020/12/29 08:18:13;;;;;;;1.88;0.55;;;;;;;11.66;41.60;92960.53;5092386;28;20038;-72
2020/12/29 08:20:43;;;;;;;4.13;0.50;;;;;;;11.60;41.92;92985.91;5077319;28;20107;-72
2020/12/29 08:23:09;;;;;;;4.50;0.30;;;;;;;11.65;41.58;92983.00;5072609;28;20020;-72
2020/12/29 08:25:34;;;;;;;1.67;0.50;;;;;;;11.68;41.64;92995.66;5072592;28;20098;-72
2020/12/29 08:28:02;;;;;;;1.13;0.40;;;;;;;11.69;41.62;92994.56;5072526;28;20024;-72
2020/12/29 08:30:29;;;;;;;2.28;0.50;;;;;;;11.74;41.20;93023.66;5087908;28;20031;-72
2020/12/29 08:32:57;;;;;;;2.05;0.50;;;;;;;11.74;41.51;92996.19;5072371;28;20041;-72
2020/12/29 08:35:23;;;;;;;2.17;0.40;;;;;;;11.77;41.73;93017.66;5072356;28;20064;-72
2020/12/29 08:38:04;;;;;;;2.25;0.50;;;;;;;11.79;41.67;93012.75;5072632;28;20020;-72
2020/12/29 08:40:35;;;;;;;4.32;0.50;;;;;;;11.82;41.12;93004.09;5090818;28;20032;-72
2020/12/29 08:43:01;;;;;;;0.88;0.38;;;;;;;11.79;41.33;93012.75;5091138;28;20498;-72
2020/12/29 08:45:28;;;;;;;2.05;0.52;;;;;;;11.76;41.08;93018.00;5092211;28;20024;-72
2020/12/29 08:47:57;;;;;;;4.18;0.68;;;;;;;11.81;41.61;93012.44;5091175;28;20034;-72
2020/12/29 08:50:34;;;;;;;5.07;0.60;;;;;;;11.77;41.87;93008.88;5091350;28;20054;-72
2020/12/29 08:53:09;;;;;;;2.72;0.30;;;;;;;11.81;41.55;93028.44;5092021;28;20047;-72
2020/12/29 08:55:36;;;;;;;5.30;0.25;;;;;;;11.83;41.49;93023.53;5090757;28;20053;-72
2020/12/29 08:58:02;;;;;;;2.15;0.50;;;;;;;11.89;41.72;93024.09;5090822;28;20023;-72
2020/12/29 09:00:29;;;;;;;2.33;0.45;;;;;;;11.90;41.58;93028.31;5091850;28;20036;-72
2020/12/29 09:02:55;;;;;;;1.75;0.50;;;;;;;11.88;41.36;93004.59;5090524;28;20107;-72
2020/12/29 09:05:23;;;;;;;1.55;0.45;;;;;;;11.90;41.54;93021.06;5091970;28;20035;-71
2020/12/29 09:07:48;;;;;;;6.60;0.50;;;;;;;11.87;41.76;93061.03;5090577;28;20036;-72
2020/12/29 09:10:15;;;;;;;1.83;0.55;;;;;;;11.95;42.32;93052.13;5091998;28;20398;-71
2020/12/29 09:12:42;;;;;;;0.82;0.43;;;;;;;11.90;42.27;93020.31;5091458;28;20036;-72
2020/12/29 09:15:09;;;;;;;1.25;0.45;;;;;;;11.82;42.35;93046.81;5091948;28;20028;-72
2020/12/29 09:17:36;;;;;;;1.98;0.30;;;;;;;11.82;42.29;93035.31;5090579;28;20032;-72
2020/12/29 09:20:23;;;;;;;4.10;0.80;;;;;;;11.89;42.80;93040.13;5090284;28;20035;-71
2020/12/29 09:23:07;;;;;;;1.98;0.35;;;;;;;11.76;42.75;93026.00;5090055;28;20402;-71
2020/12/29 09:25:43;;;;;;;3.42;0.77;;;;;;;11.75;42.52;93019.91;5091539;28;20043;-72
2020/12/29 09:28:27;;;;;;;6.43;1.58;;;;;;;11.75;42.75;93030.56;5089760;28;20034;-71
2020/12/29 09:30:59;;;;;;;0.80;0.30;;;;;;;11.71;42.52;93045.72;5090864;28;20099;-72
2020/12/29 09:33:27;;;;;;;2.80;1.42;;;;;;;11.68;42.35;93030.38;5090826;28;20112;-72
2020/12/29 09:35:52;;;;;;;7.13;0.93;;;;;;;11.74;42.86;93029.00;5090781;28;20443;-72
2020/12/29 09:38:19;;;;;;;3.38;1.10;;;;;;;11.80;42.43;93041.00;5090830;28;20051;-72
2020/12/29 09:40:45;;;;;;;4.45;1.17;;;;;;;11.91;42.19;93021.88;5090743;28;20098;-72
2020/12/29 09:43:14;;;;;;;3.00;0.82;;;;;;;11.93;42.54;93025.75;5075902;28;20419;-72
2020/12/29 09:45:44;;;;;;;2.35;0.52;;;;;;;11.96;41.57;93029.63;5069231;28;20024;-72
2020/12/29 09:48:10;;;;;;;2.55;0.52;;;;;;;12.07;42.07;93009.31;5070094;28;20063;-72
2020/12/29 09:50:36;;;;;;;4.75;0.70;;;;;;;11.96;41.90;93000.25;5069126;28;20048;-72
2020/12/29 09:53:01;;;;;;;4.35;0.80;;;;;;;12.02;41.65;93012.22;5070283;28;20041;-72
2020/12/29 09:55:26;;;;;;;5.55;0.40;;;;;;;12.01;41.98;93013.38;5068808;28;20063;-72
2020/12/29 09:57:52;;;;;;;4.60;0.60;;;;;;;12.08;41.40;93042.91;5069238;28;20020;-72
2020/12/29 10:00:17;;;;;;;3.50;0.30;;;;;;;12.10;41.50;93035.34;5069974;28;20020;-72
2020/12/29 10:02:43;;;;;;;1.70;0.50;;;;;;;12.19;41.10;93035.16;5069935;28;20417;-72
2020/12/29 10:05:08;;;;;;;2.53;0.75;;;;;;;12.17;41.12;93010.69;5080130;28;20016;-72
2020/12/29 10:07:34;;;;;;;2.63;0.57;;;;;;;12.16;40.62;93028.63;5069816;28;20399;-72
2020/12/29 10:09:59;;;;;;;1.58;0.60;;;;;;;12.22;40.43;93040.59;5069939;28;20502;-72
2020/12/29 10:12:25;;;;;;;3.47;0.47;;;;;;;12.26;40.46;93026.56;5085909;28;20099;-72
2020/12/29 10:14:50;;;;;;;5.32;0.60;;;;;;;12.29;40.78;93049.94;5074854;28;20052;-72
2020/12/29 10:17:16;;;;;;;5.85;0.73;;;;;;;12.28;41.24;93041.13;5069825;28;20403;-72
2020/12/29 10:19:41;;;;;;;2.97;1.08;;;;;;;12.31;41.08;93042.34;5069661;28;20372;-72
2020/12/29 10:22:07;;;;;;;2.08;0.52;;;;;;;12.33;40.60;93038.19;5068492;28;20399;-72
2020/12/29 10:24:32;;;;;;;2.97;0.47;;;;;;;12.38;40.76;93026.50;5069716;28;20390;-72
2020/12/29 10:26:58;;;;;;;5.88;0.70;;;;;;;12.41;40.34;93031.16;5069426;28;20063;-72
2020/12/29 10:29:24;;;;;;;3.17;0.50;;;;;;;12.40;40.08;93048.31;5069550;28;20480;-72
2020/12/29 10:31:50;;;;;;;5.70;0.50;;;;;;;12.38;40.75;93059.34;5076324;28;20081;-72
2020/12/29 10:34:17;;;;;;;2.58;0.60;;;;;;;12.46;40.74;93062.97;5088033;28;20471;-72
2020/12/29 10:36:44;;;;;;;3.65;0.45;;;;;;;12.40;40.08;93064.34;5089245;28;20089;-72
2020/12/29 10:39:10;;;;;;;2.05;0.40;;;;;;;12.47;39.65;93037.00;5087331;28;20020;-73
2020/12/29 10:41:37;;;;;;;1.80;0.40;;;;;;;12.48;39.71;93034.00;5089235;28;20447;-72
2020/12/29 10:44:04;;;;;;;1.33;0.43;;;;;;;12.56;39.20;93034.97;5084412;28;20045;-72
2020/12/29 10:46:29;;;;;;;1.58;0.40;;;;;;;12.59;39.48;93045.72;5067813;28;20036;-72
2020/12/29 10:48:55;;;;;;;1.83;0.50;;;;;;;12.66;39.02;93029.09;5068130;28;20134;-72
2020/12/29 10:51:22;;;;;;;5.00;0.80;;;;;;;12.70;39.44;93055.91;5068983;28;20028;-72
2020/12/29 10:53:48;;;;;;;4.55;0.57;;;;;;;12.70;39.75;93050.53;5068938;28;20078;-72
2020/12/29 10:56:14;;;;;;;5.25;0.75;;;;;;;12.74;39.28;93043.38;5069021;28;20509;-72
2020/12/29 10:58:43;;;;;;;3.75;0.57;;;;;;;12.83;39.25;93042.09;5067648;28;20028;-72
2020/12/29 11:01:13;;;;;;;0.57;0.40;;;;;;;12.91;38.58;93021.66;5069331;28;20094;-72
2020/12/29 11:03:38;;;;;;;5.03;1.67;;;;;;;12.97;38.48;93036.31;5104012;28;20016;-72
2020/12/29 11:06:12;;;;;;;3.55;0.50;;;;;;;12.97;37.95;93017.56;5089239;28;20024;-72
2020/12/29 11:08:38;;;;;;;3.85;1.63;;;;;;;13.03;38.78;93042.16;5089020;28;20030;-72
2020/12/29 11:11:03;;;;;;;1.95;0.43;;;;;;;13.00;38.58;93038.25;5089321;28;20026;-72
2020/12/29 11:13:29;;;;;;;4.57;0.63;;;;;;;12.98;38.65;93032.50;5080201;28;20043;-72
2020/12/29 11:15:54;;;;;;;3.22;0.60;;;;;;;12.97;39.07;93028.28;5068894;28;20028;-72
2020/12/29 11:18:20;;;;;;;1.45;0.52;;;;;;;13.00;39.21;93040.94;5069012;28;20109;-72
2020/12/29 11:20:49;;;;;;;0.73;0.45;;;;;;;12.97;38.74;93022.16;5068772;28;20109;-72
2020/12/29 11:23:15;;;;;;;3.22;0.60;;;;;;;12.90;39.41;93027.34;5068908;28;20033;-72
2020/12/29 11:25:40;;;;;;;3.70;0.63;;;;;;;12.83;39.22;93041.31;5086187;28;20039;-72
2020/12/29 11:28:06;;;;;;;2.40;0.77;;;;;;;12.80;38.81;93024.09;5087746;28;20035;-72
2020/12/29 11:30:31;;;;;;;4.10;0.77;;;;;;;12.85;38.90;93017.69;5088964;28;20058;-72
2020/12/29 11:32:57;;;;;;;1.52;0.70;;;;;;;12.90;39.28;93033.44;5077338;28;20025;-72
2020/12/29 11:35:22;;;;;;;1.50;0.70;;;;;;;12.95;38.56;93019.81;5068794;28;20118;-72